sensor_id;sensor_type;location;lat;lon;timestamp;temperature;humidity
63802;DHT22;49949;43.060;25.624;2023-05-06T00:02:01;10.20;99.90
63802;DHT22;49949;43.060;25.624;2023-05-06T00:04:27;10.20;99.90
63802;DHT22;49949;43.060;25.624;2023-05-06T00:06:52;10.30;99.90
63802;DHT22;49949;43.060;25.624;2023-05-06T00:09:18;10.20;99.90
63802;DHT22;49949;43.060;25.624;2023-05-06T00:11:45;10.30;99.90
63802;DHT22;49949;43.060;25.624;2023-05-06T00:14:12;10.30;99.90
63802;DHT22;49949;43.060;25.624;2023-05-06T00:16:37;10.20;99.90
63802;DHT22;49949;43.060;25.624;2023-05-06T00:19:03;10.20;99.90
63802;DHT22;49949;43.060;25.624;2023-05-06T00:21:29;10.20;99.90
63802;DHT22;49949;43.060;25.624;2023-05-06T00:23:54;10.20;99.90
63802;DHT22;49949;43.060;25.624;2023-05-06T00:26:20;10.20;99.90
63802;DHT22;49949;43.060;25.624;2023-05-06T00:28:46;10.20;99.90
63802;DHT22;49949;43.060;25.624;2023-05-06T00:31:11;10.20;99.90
63802;DHT22;49949;43.060;25.624;2023-05-06T00:33:37;10.20;99.90
63802;DHT22;49949;43.060;25.624;2023-05-06T00:36:03;10.20;99.90
63802;DHT22;49949;43.060;25.624;2023-05-06T00:38:29;10.20;99.90
63802;DHT22;49949;43.060;25.624;2023-05-06T00:40:54;10.20;99.90
63802;DHT22;49949;43.060;25.624;2023-05-06T00:43:20;10.20;99.90
63802;DHT22;49949;43.060;25.624;2023-05-06T00:45:47;10.20;99.90
63802;DHT22;49949;43.060;25.624;2023-05-06T00:48:13;10.20;99.90
63802;DHT22;49949;43.060;25.624;2023-05-06T00:50:40;10.20;99.90
63802;DHT22;49949;43.060;25.624;2023-05-06T00:53:08;10.10;99.90
63802;DHT22;49949;43.060;25.624;2023-05-06T00:55:34;10.10;99.90
63802;DHT22;49949;43.060;25.624;2023-05-06T00:58:00;10.10;99.90
63802;DHT22;49949;43.060;25.624;2023-05-06T01:00:26;10.10;99.90
63802;DHT22;49949;43.060;25.624;2023-05-06T01:02:51;10.10;99.90
63802;DHT22;49949;43.060;25.624;2023-05-06T01:05:20;10.00;99.90
63802;DHT22;49949;43.060;25.624;2023-05-06T01:08:20;10.10;99.90
63802;DHT22;49949;43.060;25.624;2023-05-06T01:10:54;10.10;99.90
63802;DHT22;49949;43.060;25.624;2023-05-06T01:15:55;10.00;99.90
63802;DHT22;49949;43.060;25.624;2023-05-06T01:18:25;10.10;99.90
63802;DHT22;49949;43.060;25.624;2023-05-06T01:20:53;10.10;99.90
63802;DHT22;49949;43.060;25.624;2023-05-06T01:23:19;10.10;99.90
63802;DHT22;49949;43.060;25.624;2023-05-06T01:25:45;10.10;99.90
63802;DHT22;49949;43.060;25.624;2023-05-06T01:28:11;10.00;99.90
63802;DHT22;49949;43.060;25.624;2023-05-06T01:31:07;9.90;99.90
63802;DHT22;49949;43.060;25.624;2023-05-06T01:33:50;9.90;99.90
63802;DHT22;49949;43.060;25.624;2023-05-06T01:36:32;9.90;99.90
63802;DHT22;49949;43.060;25.624;2023-05-06T01:39:23;9.80;99.90
63802;DHT22;49949;43.060;25.624;2023-05-06T01:41:49;9.80;99.90
63802;DHT22;49949;43.060;25.624;2023-05-06T01:44:16;9.80;99.90
63802;DHT22;49949;43.060;25.624;2023-05-06T01:46:45;9.70;99.90
63802;DHT22;49949;43.060;25.624;2023-05-06T01:49:11;9.70;99.90
63802;DHT22;49949;43.060;25.624;2023-05-06T01:51:37;9.70;99.90
63802;DHT22;49949;43.060;25.624;2023-05-06T01:54:03;9.70;99.90
63802;DHT22;49949;43.060;25.624;2023-05-06T01:56:29;9.70;99.90
63802;DHT22;49949;43.060;25.624;2023-05-06T01:58:56;9.60;99.90
63802;DHT22;49949;43.060;25.624;2023-05-06T02:01:22;9.60;99.90
63802;DHT22;49949;43.060;25.624;2023-05-06T02:03:48;9.60;99.90
63802;DHT22;49949;43.060;25.624;2023-05-06T02:06:14;9.60;99.90
63802;DHT22;49949;43.060;25.624;2023-05-06T02:08:40;9.60;99.90
63802;DHT22;49949;43.060;25.624;2023-05-06T02:11:05;9.50;99.90
63802;DHT22;49949;43.060;25.624;2023-05-06T02:13:31;9.50;99.90
63802;DHT22;49949;43.060;25.624;2023-05-06T02:15:57;9.50;99.90
63802;DHT22;49949;43.060;25.624;2023-05-06T02:18:22;9.50;99.90
63802;DHT22;49949;43.060;25.624;2023-05-06T02:20:49;9.50;99.90
63802;DHT22;49949;43.060;25.624;2023-05-06T02:23:15;9.50;99.90
63802;DHT22;49949;43.060;25.624;2023-05-06T02:25:41;9.50;99.90
63802;DHT22;49949;43.060;25.624;2023-05-06T02:28:07;9.50;99.90
63802;DHT22;49949;43.060;25.624;2023-05-06T02:30:33;9.50;99.90
63802;DHT22;49949;43.060;25.624;2023-05-06T02:32:59;9.40;99.90
63802;DHT22;49949;43.060;25.624;2023-05-06T02:35:25;9.50;99.90
63802;DHT22;49949;43.060;25.624;2023-05-06T02:37:50;9.40;99.90
63802;DHT22;49949;43.060;25.624;2023-05-06T02:40:16;9.40;99.90
63802;DHT22;49949;43.060;25.624;2023-05-06T02:42:42;9.30;99.90
63802;DHT22;49949;43.060;25.624;2023-05-06T02:45:08;9.30;99.90
63802;DHT22;49949;43.060;25.624;2023-05-06T02:47:34;9.30;99.90
63802;DHT22;49949;43.060;25.624;2023-05-06T02:49:59;9.30;99.90
63802;DHT22;49949;43.060;25.624;2023-05-06T02:52:25;9.20;99.90
63802;DHT22;49949;43.060;25.624;2023-05-06T02:54:51;9.10;99.90
63802;DHT22;49949;43.060;25.624;2023-05-06T02:57:17;9.10;99.90
63802;DHT22;49949;43.060;25.624;2023-05-06T02:59:42;9.10;99.90
63802;DHT22;49949;43.060;25.624;2023-05-06T03:02:08;9.10;99.90
63802;DHT22;49949;43.060;25.624;2023-05-06T03:04:34;9.00;99.90
63802;DHT22;49949;43.060;25.624;2023-05-06T03:06:59;8.90;99.90
63802;DHT22;49949;43.060;25.624;2023-05-06T03:09:25;8.90;99.90
63802;DHT22;49949;43.060;25.624;2023-05-06T03:11:51;8.90;99.90
63802;DHT22;49949;43.060;25.624;2023-05-06T03:14:16;9.00;99.90
63802;DHT22;49949;43.060;25.624;2023-05-06T03:16:42;9.00;99.90
63802;DHT22;49949;43.060;25.624;2023-05-06T03:19:08;9.00;99.90
63802;DHT22;49949;43.060;25.624;2023-05-06T03:21:33;9.00;99.90
63802;DHT22;49949;43.060;25.624;2023-05-06T03:23:59;9.00;99.90
63802;DHT22;49949;43.060;25.624;2023-05-06T03:26:25;9.00;99.90
63802;DHT22;49949;43.060;25.624;2023-05-06T03:28:51;9.00;99.90
63802;DHT22;49949;43.060;25.624;2023-05-06T03:31:16;9.10;99.90
63802;DHT22;49949;43.060;25.624;2023-05-06T03:33:42;9.00;99.90
63802;DHT22;49949;43.060;25.624;2023-05-06T03:36:08;9.00;99.90
63802;DHT22;49949;43.060;25.624;2023-05-06T03:38:33;9.10;99.90
63802;DHT22;49949;43.060;25.624;2023-05-06T03:40:59;9.00;99.90
63802;DHT22;49949;43.060;25.624;2023-05-06T03:43:25;9.00;99.90
63802;DHT22;49949;43.060;25.624;2023-05-06T03:45:50;8.90;99.90
63802;DHT22;49949;43.060;25.624;2023-05-06T03:48:16;8.90;99.90
63802;DHT22;49949;43.060;25.624;2023-05-06T03:50:42;8.80;99.90
63802;DHT22;49949;43.060;25.624;2023-05-06T03:53:07;8.70;99.90
63802;DHT22;49949;43.060;25.624;2023-05-06T03:55:33;8.70;99.90
63802;DHT22;49949;43.060;25.624;2023-05-06T03:58:00;8.70;99.90
63802;DHT22;49949;43.060;25.624;2023-05-06T04:00:25;8.70;99.90
63802;DHT22;49949;43.060;25.624;2023-05-06T04:02:51;8.70;99.90
63802;DHT22;49949;43.060;25.624;2023-05-06T04:05:17;8.80;99.90
63802;DHT22;49949;43.060;25.624;2023-05-06T04:07:42;8.90;99.90
63802;DHT22;49949;43.060;25.624;2023-05-06T04:10:08;8.90;99.90
63802;DHT22;49949;43.060;25.624;2023-05-06T04:12:34;8.90;99.90
63802;DHT22;49949;43.060;25.624;2023-05-06T04:15:00;9.00;99.90
63802;DHT22;49949;43.060;25.624;2023-05-06T04:17:26;9.20;99.90
63802;DHT22;49949;43.060;25.624;2023-05-06T04:19:51;9.20;99.90
63802;DHT22;49949;43.060;25.624;2023-05-06T04:22:20;9.30;99.90
63802;DHT22;49949;43.060;25.624;2023-05-06T04:24:45;9.40;99.90
63802;DHT22;49949;43.060;25.624;2023-05-06T04:27:11;9.50;99.90
63802;DHT22;49949;43.060;25.624;2023-05-06T04:29:37;9.50;99.90
63802;DHT22;49949;43.060;25.624;2023-05-06T04:32:03;9.50;99.90
63802;DHT22;49949;43.060;25.624;2023-05-06T04:34:29;9.50;99.90
63802;DHT22;49949;43.060;25.624;2023-05-06T04:36:55;9.50;99.90
63802;DHT22;49949;43.060;25.624;2023-05-06T04:39:23;9.50;99.90
63802;DHT22;49949;43.060;25.624;2023-05-06T04:41:49;9.60;99.90
63802;DHT22;49949;43.060;25.624;2023-05-06T04:44:15;9.70;99.90
63802;DHT22;49949;43.060;25.624;2023-05-06T04:46:41;9.80;99.90
63802;DHT22;49949;43.060;25.624;2023-05-06T04:49:07;9.80;99.90
63802;DHT22;49949;43.060;25.624;2023-05-06T04:51:32;9.70;99.90
63802;DHT22;49949;43.060;25.624;2023-05-06T04:53:58;9.80;99.90
63802;DHT22;49949;43.060;25.624;2023-05-06T04:56:24;9.90;99.90
63802;DHT22;49949;43.060;25.624;2023-05-06T04:58:50;9.90;99.90
63802;DHT22;49949;43.060;25.624;2023-05-06T05:01:16;10.00;99.90
63802;DHT22;49949;43.060;25.624;2023-05-06T05:03:44;10.20;99.90
63802;DHT22;49949;43.060;25.624;2023-05-06T05:06:10;10.30;99.90
63802;DHT22;49949;43.060;25.624;2023-05-06T05:08:38;10.40;99.90
63802;DHT22;49949;43.060;25.624;2023-05-06T05:11:05;10.70;99.90
63802;DHT22;49949;43.060;25.624;2023-05-06T05:13:31;11.10;99.90
63802;DHT22;49949;43.060;25.624;2023-05-06T05:15:57;11.60;99.90
63802;DHT22;49949;43.060;25.624;2023-05-06T05:18:22;12.30;99.90
63802;DHT22;49949;43.060;25.624;2023-05-06T05:20:48;12.80;99.90
63802;DHT22;49949;43.060;25.624;2023-05-06T05:23:14;12.90;99.90
63802;DHT22;49949;43.060;25.624;2023-05-06T05:25:40;13.10;99.90
63802;DHT22;49949;43.060;25.624;2023-05-06T05:28:05;13.60;99.90
63802;DHT22;49949;43.060;25.624;2023-05-06T05:30:31;14.30;99.90
63802;DHT22;49949;43.060;25.624;2023-05-06T05:32:57;15.00;99.90
63802;DHT22;49949;43.060;25.624;2023-05-06T05:35:22;15.70;99.90
63802;DHT22;49949;43.060;25.624;2023-05-06T05:37:48;15.90;99.90
63802;DHT22;49949;43.060;25.624;2023-05-06T05:40:14;16.10;99.90
63802;DHT22;49949;43.060;25.624;2023-05-06T05:42:40;16.80;99.90
63802;DHT22;49949;43.060;25.624;2023-05-06T05:45:06;17.40;99.90
63802;DHT22;49949;43.060;25.624;2023-05-06T05:47:32;17.70;99.90
63802;DHT22;49949;43.060;25.624;2023-05-06T05:49:57;18.10;99.90
63802;DHT22;49949;43.060;25.624;2023-05-06T05:52:23;18.60;99.90
63802;DHT22;49949;43.060;25.624;2023-05-06T05:54:49;18.60;99.90
63802;DHT22;49949;43.060;25.624;2023-05-06T05:57:15;18.60;99.90
63802;DHT22;49949;43.060;25.624;2023-05-06T05:59:40;18.70;99.90
63802;DHT22;49949;43.060;25.624;2023-05-06T06:02:06;18.80;99.90
63802;DHT22;49949;43.060;25.624;2023-05-06T06:04:32;19.10;99.90
63802;DHT22;49949;43.060;25.624;2023-05-06T06:06:57;19.20;99.90
63802;DHT22;49949;43.060;25.624;2023-05-06T06:09:23;19.30;99.90
63802;DHT22;49949;43.060;25.624;2023-05-06T06:11:50;19.20;99.90
63802;DHT22;49949;43.060;25.624;2023-05-06T06:14:15;19.00;99.90
63802;DHT22;49949;43.060;25.624;2023-05-06T06:16:41;19.00;99.90
63802;DHT22;49949;43.060;25.624;2023-05-06T06:19:07;19.00;99.90
63802;DHT22;49949;43.060;25.624;2023-05-06T06:21:33;19.00;99.90
63802;DHT22;49949;43.060;25.624;2023-05-06T06:23:58;19.10;99.90
63802;DHT22;49949;43.060;25.624;2023-05-06T06:26:24;19.10;99.90
63802;DHT22;49949;43.060;25.624;2023-05-06T06:28:50;19.00;99.90
63802;DHT22;49949;43.060;25.624;2023-05-06T06:31:15;18.70;99.90
63802;DHT22;49949;43.060;25.624;2023-05-06T06:33:41;18.60;99.90
63802;DHT22;49949;43.060;25.624;2023-05-06T06:36:07;18.60;99.90
63802;DHT22;49949;43.060;25.624;2023-05-06T06:38:33;18.40;99.90
63802;DHT22;49949;43.060;25.624;2023-05-06T06:40:58;18.40;99.90
63802;DHT22;49949;43.060;25.624;2023-05-06T06:43:24;18.60;99.90
63802;DHT22;49949;43.060;25.624;2023-05-06T06:45:50;18.90;99.90
63802;DHT22;49949;43.060;25.624;2023-05-06T06:48:16;19.00;99.90
63802;DHT22;49949;43.060;25.624;2023-05-06T06:50:42;19.00;99.90
63802;DHT22;49949;43.060;25.624;2023-05-06T06:53:08;19.00;99.90
63802;DHT22;49949;43.060;25.624;2023-05-06T06:55:34;19.20;99.90
63802;DHT22;49949;43.060;25.624;2023-05-06T06:58:00;19.00;99.90
63802;DHT22;49949;43.060;25.624;2023-05-06T07:00:25;18.90;99.90
63802;DHT22;49949;43.060;25.624;2023-05-06T07:02:51;18.60;99.90
63802;DHT22;49949;43.060;25.624;2023-05-06T07:05:17;18.50;99.90
63802;DHT22;49949;43.060;25.624;2023-05-06T07:07:43;18.50;99.90
63802;DHT22;49949;43.060;25.624;2023-05-06T07:10:08;18.70;99.90
63802;DHT22;49949;43.060;25.624;2023-05-06T07:12:34;19.10;99.90
63802;DHT22;49949;43.060;25.624;2023-05-06T07:15:00;19.40;99.90
63802;DHT22;49949;43.060;25.624;2023-05-06T07:17:29;19.60;99.90
63802;DHT22;49949;43.060;25.624;2023-05-06T07:19:54;19.80;99.90
63802;DHT22;49949;43.060;25.624;2023-05-06T07:22:20;19.80;99.90
63802;DHT22;49949;43.060;25.624;2023-05-06T07:24:46;19.90;99.90
63802;DHT22;49949;43.060;25.624;2023-05-06T07:27:11;20.00;99.90
63802;DHT22;49949;43.060;25.624;2023-05-06T07:29:37;20.00;99.90
63802;DHT22;49949;43.060;25.624;2023-05-06T07:32:03;20.10;99.90
63802;DHT22;49949;43.060;25.624;2023-05-06T07:34:29;20.20;99.90
63802;DHT22;49949;43.060;25.624;2023-05-06T07:36:55;20.50;99.90
63802;DHT22;49949;43.060;25.624;2023-05-06T07:39:20;20.60;99.90
63802;DHT22;49949;43.060;25.624;2023-05-06T07:41:46;20.40;99.90
63802;DHT22;49949;43.060;25.624;2023-05-06T07:44:12;20.50;99.90
63802;DHT22;49949;43.060;25.624;2023-05-06T07:46:37;20.70;99.90
63802;DHT22;49949;43.060;25.624;2023-05-06T07:49:03;20.90;99.90
63802;DHT22;49949;43.060;25.624;2023-05-06T07:51:29;20.90;99.90
63802;DHT22;49949;43.060;25.624;2023-05-06T07:53:55;21.10;99.90
63802;DHT22;49949;43.060;25.624;2023-05-06T07:56:21;21.40;99.90
63802;DHT22;49949;43.060;25.624;2023-05-06T07:58:47;21.40;97.50
63802;DHT22;49949;43.060;25.624;2023-05-06T08:01:14;21.10;96.20
63802;DHT22;49949;43.060;25.624;2023-05-06T08:03:40;20.80;97.40
63802;DHT22;49949;43.060;25.624;2023-05-06T08:06:06;20.90;98.80
63802;DHT22;49949;43.060;25.624;2023-05-06T08:08:31;20.40;97.10
63802;DHT22;49949;43.060;25.624;2023-05-06T08:10:57;19.90;99.20
63802;DHT22;49949;43.060;25.624;2023-05-06T08:13:24;19.70;99.90
63802;DHT22;49949;43.060;25.624;2023-05-06T08:15:50;19.50;99.90
63802;DHT22;49949;43.060;25.624;2023-05-06T08:18:16;19.70;99.90
63802;DHT22;49949;43.060;25.624;2023-05-06T08:20:42;19.80;99.90
63802;DHT22;49949;43.060;25.624;2023-05-06T08:23:08;20.30;99.90
63802;DHT22;49949;43.060;25.624;2023-05-06T08:25:33;20.70;99.90
63802;DHT22;49949;43.060;25.624;2023-05-06T08:27:59;20.80;99.90
63802;DHT22;49949;43.060;25.624;2023-05-06T08:30:25;21.00;98.00
63802;DHT22;49949;43.060;25.624;2023-05-06T08:32:51;21.00;99.90
63802;DHT22;49949;43.060;25.624;2023-05-06T08:35:17;21.40;99.90
63802;DHT22;49949;43.060;25.624;2023-05-06T08:37:43;21.60;97.20
63802;DHT22;49949;43.060;25.624;2023-05-06T08:40:19;21.90;98.70
63802;DHT22;49949;43.060;25.624;2023-05-06T08:42:47;22.20;96.70
63802;DHT22;49949;43.060;25.624;2023-05-06T08:45:16;21.70;94.30
63802;DHT22;49949;43.060;25.624;2023-05-06T08:47:42;21.60;93.20
63802;DHT22;49949;43.060;25.624;2023-05-06T08:50:09;21.40;95.10
63802;DHT22;49949;43.060;25.624;2023-05-06T08:52:36;21.20;95.80
63802;DHT22;49949;43.060;25.624;2023-05-06T08:55:02;21.20;94.80
63802;DHT22;49949;43.060;25.624;2023-05-06T08:57:32;20.80;97.10
63802;DHT22;49949;43.060;25.624;2023-05-06T08:59:59;21.00;96.30
63802;DHT22;49949;43.060;25.624;2023-05-06T09:02:25;21.00;95.30
63802;DHT22;49949;43.060;25.624;2023-05-06T09:04:52;21.20;95.30
63802;DHT22;49949;43.060;25.624;2023-05-06T09:07:22;21.30;93.90
63802;DHT22;49949;43.060;25.624;2023-05-06T09:09:50;20.60;97.20
63802;DHT22;49949;43.060;25.624;2023-05-06T09:12:16;20.80;97.80
63802;DHT22;49949;43.060;25.624;2023-05-06T09:14:42;20.70;97.10
63802;DHT22;49949;43.060;25.624;2023-05-06T09:17:21;20.80;97.90
63802;DHT22;49949;43.060;25.624;2023-05-06T09:19:55;21.40;99.90
63802;DHT22;49949;43.060;25.624;2023-05-06T09:22:25;22.00;96.40
63802;DHT22;49949;43.060;25.624;2023-05-06T09:24:52;22.20;95.50
63802;DHT22;49949;43.060;25.624;2023-05-06T09:27:32;22.40;91.30
63802;DHT22;49949;43.060;25.624;2023-05-06T09:32:25;22.20;90.00
63802;DHT22;49949;43.060;25.624;2023-05-06T09:34:50;22.00;93.00
63802;DHT22;49949;43.060;25.624;2023-05-06T09:37:16;21.60;92.30
63802;DHT22;49949;43.060;25.624;2023-05-06T09:39:42;21.80;92.60
63802;DHT22;49949;43.060;25.624;2023-05-06T09:42:07;22.30;92.10
63802;DHT22;49949;43.060;25.624;2023-05-06T09:44:33;22.80;90.60
63802;DHT22;49949;43.060;25.624;2023-05-06T09:46:59;23.40;89.30
63802;DHT22;49949;43.060;25.624;2023-05-06T09:49:25;23.30;86.50
63802;DHT22;49949;43.060;25.624;2023-05-06T09:51:51;23.20;88.50
63802;DHT22;49949;43.060;25.624;2023-05-06T09:54:17;23.20;88.70
63802;DHT22;49949;43.060;25.624;2023-05-06T09:56:44;22.90;86.40
63802;DHT22;49949;43.060;25.624;2023-05-06T09:59:11;22.90;89.10
63802;DHT22;49949;43.060;25.624;2023-05-06T10:01:38;22.50;90.20
63802;DHT22;49949;43.060;25.624;2023-05-06T10:04:07;22.60;91.40
63802;DHT22;49949;43.060;25.624;2023-05-06T10:06:34;22.90;88.80
63802;DHT22;49949;43.060;25.624;2023-05-06T10:09:01;22.80;84.60
63802;DHT22;49949;43.060;25.624;2023-05-06T10:11:29;22.80;87.50
63802;DHT22;49949;43.060;25.624;2023-05-06T10:13:56;22.70;84.90
63802;DHT22;49949;43.060;25.624;2023-05-06T10:16:24;22.00;86.20
63802;DHT22;49949;43.060;25.624;2023-05-06T10:18:51;21.90;89.00
63802;DHT22;49949;43.060;25.624;2023-05-06T10:21:23;21.90;88.30
63802;DHT22;49949;43.060;25.624;2023-05-06T10:24:19;21.60;88.80
63802;DHT22;49949;43.060;25.624;2023-05-06T10:26:48;21.40;89.60
63802;DHT22;49949;43.060;25.624;2023-05-06T10:29:15;21.30;89.90
63802;DHT22;49949;43.060;25.624;2023-05-06T10:31:53;21.30;89.50
63802;DHT22;49949;43.060;25.624;2023-05-06T10:34:20;21.30;90.60
63802;DHT22;49949;43.060;25.624;2023-05-06T10:36:50;21.30;90.00
63802;DHT22;49949;43.060;25.624;2023-05-06T10:39:19;21.30;90.60
63802;DHT22;49949;43.060;25.624;2023-05-06T10:41:46;21.60;90.60
63802;DHT22;49949;43.060;25.624;2023-05-06T10:44:12;21.90;90.00
63802;DHT22;49949;43.060;25.624;2023-05-06T10:46:58;22.40;88.00
63802;DHT22;49949;43.060;25.624;2023-05-06T10:49:25;22.80;87.20
63802;DHT22;49949;43.060;25.624;2023-05-06T10:52:12;22.90;84.10
63802;DHT22;49949;43.060;25.624;2023-05-06T10:54:50;22.80;85.90
63802;DHT22;49949;43.060;25.624;2023-05-06T10:57:16;22.80;84.40
63802;DHT22;49949;43.060;25.624;2023-05-06T10:59:45;22.60;83.50
63802;DHT22;49949;43.060;25.624;2023-05-06T11:02:12;22.40;83.90
63802;DHT22;49949;43.060;25.624;2023-05-06T11:04:38;22.10;84.20
63802;DHT22;49949;43.060;25.624;2023-05-06T11:07:14;21.70;83.90
63802;DHT22;49949;43.060;25.624;2023-05-06T11:10:04;21.60;86.20
63802;DHT22;49949;43.060;25.624;2023-05-06T11:12:57;21.50;88.00
63802;DHT22;49949;43.060;25.624;2023-05-06T11:15:38;21.50;86.20
63802;DHT22;49949;43.060;25.624;2023-05-06T11:26:08;21.50;84.80
63802;DHT22;49949;43.060;25.624;2023-05-06T11:28:34;21.50;85.00
63802;DHT22;49949;43.060;25.624;2023-05-06T11:31:00;21.50;86.20
63802;DHT22;49949;43.060;25.624;2023-05-06T11:33:31;21.70;89.00
63802;DHT22;49949;43.060;25.624;2023-05-06T11:36:01;21.70;86.40
63802;DHT22;49949;43.060;25.624;2023-05-06T11:38:43;21.60;85.80
63802;DHT22;49949;43.060;25.624;2023-05-06T11:41:09;21.60;86.30
63802;DHT22;49949;43.060;25.624;2023-05-06T11:43:35;21.70;86.50
63802;DHT22;49949;43.060;25.624;2023-05-06T11:46:00;21.80;85.30
63802;DHT22;49949;43.060;25.624;2023-05-06T11:48:27;21.80;84.10
63802;DHT22;49949;43.060;25.624;2023-05-06T11:50:53;21.90;83.90
63802;DHT22;49949;43.060;25.624;2023-05-06T11:53:22;22.00;83.20
63802;DHT22;49949;43.060;25.624;2023-05-06T11:55:50;22.10;84.10
63802;DHT22;49949;43.060;25.624;2023-05-06T11:58:25;22.10;85.10
63802;DHT22;49949;43.060;25.624;2023-05-06T12:00:55;22.20;85.50
63802;DHT22;49949;43.060;25.624;2023-05-06T12:03:22;22.40;86.70
63802;DHT22;49949;43.060;25.624;2023-05-06T12:05:49;22.40;82.90
63802;DHT22;49949;43.060;25.624;2023-05-06T12:08:20;22.40;85.00
63802;DHT22;49949;43.060;25.624;2023-05-06T12:10:48;22.20;84.50
63802;DHT22;49949;43.060;25.624;2023-05-06T12:13:15;22.30;82.40
63802;DHT22;49949;43.060;25.624;2023-05-06T12:15:43;22.30;82.60
63802;DHT22;49949;43.060;25.624;2023-05-06T12:18:09;22.40;83.30
63802;DHT22;49949;43.060;25.624;2023-05-06T12:20:35;22.40;82.50
63802;DHT22;49949;43.060;25.624;2023-05-06T12:23:09;22.30;82.10
63802;DHT22;49949;43.060;25.624;2023-05-06T12:25:35;22.40;82.00
63802;DHT22;49949;43.060;25.624;2023-05-06T12:28:12;22.00;82.00
63802;DHT22;49949;43.060;25.624;2023-05-06T12:30:38;21.80;82.90
63802;DHT22;49949;43.060;25.624;2023-05-06T12:33:06;21.80;82.80
63802;DHT22;49949;43.060;25.624;2023-05-06T12:35:33;21.70;83.20
63802;DHT22;49949;43.060;25.624;2023-05-06T12:38:15;21.90;84.40
63802;DHT22;49949;43.060;25.624;2023-05-06T12:40:42;22.00;84.00
63802;DHT22;49949;43.060;25.624;2023-05-06T12:43:09;22.10;83.10
63802;DHT22;49949;43.060;25.624;2023-05-06T12:45:35;22.20;81.30
63802;DHT22;49949;43.060;25.624;2023-05-06T12:48:04;22.30;84.20
63802;DHT22;49949;43.060;25.624;2023-05-06T12:50:32;22.40;82.40
63802;DHT22;49949;43.060;25.624;2023-05-06T12:52:58;22.40;83.20
63802;DHT22;49949;43.060;25.624;2023-05-06T12:55:24;22.30;81.90
63802;DHT22;49949;43.060;25.624;2023-05-06T12:57:52;22.40;82.90
63802;DHT22;49949;43.060;25.624;2023-05-06T13:00:18;22.70;80.00
63802;DHT22;49949;43.060;25.624;2023-05-06T13:02:45;22.60;79.30
63802;DHT22;49949;43.060;25.624;2023-05-06T13:05:11;22.60;78.60
63802;DHT22;49949;43.060;25.624;2023-05-06T13:07:36;22.60;78.80
63802;DHT22;49949;43.060;25.624;2023-05-06T13:10:02;22.60;77.90
63802;DHT22;49949;43.060;25.624;2023-05-06T13:12:30;22.70;78.00
63802;DHT22;49949;43.060;25.624;2023-05-06T13:14:57;22.70;77.90
63802;DHT22;49949;43.060;25.624;2023-05-06T13:17:23;22.80;79.50
63802;DHT22;49949;43.060;25.624;2023-05-06T13:19:49;23.00;76.70
63802;DHT22;49949;43.060;25.624;2023-05-06T13:22:15;23.10;76.40
63802;DHT22;49949;43.060;25.624;2023-05-06T13:24:41;22.90;75.10
63802;DHT22;49949;43.060;25.624;2023-05-06T13:27:07;23.00;75.30
63802;DHT22;49949;43.060;25.624;2023-05-06T13:29:33;23.00;74.90
63802;DHT22;49949;43.060;25.624;2023-05-06T13:31:58;22.90;77.10
63802;DHT22;49949;43.060;25.624;2023-05-06T13:34:25;22.70;75.50
63802;DHT22;49949;43.060;25.624;2023-05-06T13:36:51;22.40;77.40
63802;DHT22;49949;43.060;25.624;2023-05-06T13:39:19;22.10;79.00
63802;DHT22;49949;43.060;25.624;2023-05-06T13:41:45;22.00;80.30
63802;DHT22;49949;43.060;25.624;2023-05-06T13:44:12;21.90;80.60
63802;DHT22;49949;43.060;25.624;2023-05-06T13:46:38;21.80;81.20
63802;DHT22;49949;43.060;25.624;2023-05-06T13:49:04;21.70;81.10
63802;DHT22;49949;43.060;25.624;2023-05-06T13:51:31;21.50;81.20
63802;DHT22;49949;43.060;25.624;2023-05-06T13:53:57;21.50;81.60
63802;DHT22;49949;43.060;25.624;2023-05-06T13:56:23;21.40;80.40
63802;DHT22;49949;43.060;25.624;2023-05-06T13:58:49;21.30;79.40
63802;DHT22;49949;43.060;25.624;2023-05-06T14:01:15;21.40;80.40
63802;DHT22;49949;43.060;25.624;2023-05-06T14:03:40;21.40;78.80
63802;DHT22;49949;43.060;25.624;2023-05-06T14:06:07;21.50;79.00
63802;DHT22;49949;43.060;25.624;2023-05-06T14:08:33;21.60;80.40
63802;DHT22;49949;43.060;25.624;2023-05-06T14:10:58;21.70;80.20
63802;DHT22;49949;43.060;25.624;2023-05-06T14:13:26;22.00;84.20
63802;DHT22;49949;43.060;25.624;2023-05-06T14:15:52;22.20;83.00
63802;DHT22;49949;43.060;25.624;2023-05-06T14:18:19;22.50;81.30
63802;DHT22;49949;43.060;25.624;2023-05-06T14:20:44;22.70;79.40
63802;DHT22;49949;43.060;25.624;2023-05-06T14:23:10;22.80;78.60
63802;DHT22;49949;43.060;25.624;2023-05-06T14:25:36;22.80;77.30
63802;DHT22;49949;43.060;25.624;2023-05-06T14:28:02;22.80;77.40
63802;DHT22;49949;43.060;25.624;2023-05-06T14:30:27;22.80;75.50
63802;DHT22;49949;43.060;25.624;2023-05-06T14:32:54;22.80;76.80
63802;DHT22;49949;43.060;25.624;2023-05-06T14:35:20;22.80;77.00
63802;DHT22;49949;43.060;25.624;2023-05-06T14:37:45;22.60;75.20
63802;DHT22;49949;43.060;25.624;2023-05-06T14:40:11;22.60;76.70
63802;DHT22;49949;43.060;25.624;2023-05-06T14:42:37;22.50;75.40
63802;DHT22;49949;43.060;25.624;2023-05-06T14:45:03;22.30;74.60
63802;DHT22;49949;43.060;25.624;2023-05-06T14:47:29;22.20;75.80
63802;DHT22;49949;43.060;25.624;2023-05-06T14:49:54;22.10;73.90
63802;DHT22;49949;43.060;25.624;2023-05-06T14:52:20;22.10;74.80
63802;DHT22;49949;43.060;25.624;2023-05-06T14:54:46;22.00;75.20
63802;DHT22;49949;43.060;25.624;2023-05-06T14:57:12;22.00;75.80
63802;DHT22;49949;43.060;25.624;2023-05-06T14:59:37;21.90;75.90
63802;DHT22;49949;43.060;25.624;2023-05-06T15:02:07;21.90;80.20
63802;DHT22;49949;43.060;25.624;2023-05-06T15:04:33;21.70;79.50
63802;DHT22;49949;43.060;25.624;2023-05-06T15:06:59;21.60;80.20
63802;DHT22;49949;43.060;25.624;2023-05-06T15:09:25;21.60;80.80
63802;DHT22;49949;43.060;25.624;2023-05-06T15:11:51;21.60;84.70
63802;DHT22;49949;43.060;25.624;2023-05-06T15:14:17;21.50;89.60
63802;DHT22;49949;43.060;25.624;2023-05-06T15:16:42;21.40;86.90
63802;DHT22;49949;43.060;25.624;2023-05-06T15:19:08;21.30;94.60
63802;DHT22;49949;43.060;25.624;2023-05-06T15:21:34;21.10;95.80
63802;DHT22;49949;43.060;25.624;2023-05-06T15:24:00;21.00;95.20
63802;DHT22;49949;43.060;25.624;2023-05-06T15:26:26;20.80;96.90
63802;DHT22;49949;43.060;25.624;2023-05-06T15:28:51;20.70;98.10
63802;DHT22;49949;43.060;25.624;2023-05-06T15:31:17;20.60;98.00
63802;DHT22;49949;43.060;25.624;2023-05-06T15:33:43;20.50;96.90